Time;durP1;ratioP1;P1;durP2;ratioP2;P2;SDS_P1;SDS_P2;PMS_P1;PMS_P2;Temp;Humidity;BMP_temperature;BMP_pressure;BME280_temperature;BME280_humidity;BME280_pressure;Samples;Min_cycle;Max_cycle;Signal;HPM_P1;HPM_P2
2021/05/26 00:02:09;;;;;;;10.98;5.10;;;;;;;13.80;59.23;101296.34;4988721;28;114764;-68
2021/05/26 00:04:36;;;;;;;12.00;4.80;;;;;;;13.80;59.12;101291.00;4989090;28;114513;-68
2021/05/26 00:07:03;;;;;;;10.23;5.07;;;;;;;13.81;59.31;101298.06;4988627;28;124187;-68
2021/05/26 00:09:30;;;;;;;11.52;4.53;;;;;;;13.81;59.33;101290.09;4988639;28;124202;-68
2021/05/26 00:11:57;;;;;;;12.20;5.35;;;;;;;13.85;59.20;101298.78;4989037;28;114342;-68
2021/05/26 00:14:24;;;;;;;12.07;4.85;;;;;;;13.88;59.16;101287.97;4988426;28;113601;-68
2021/05/26 00:16:51;;;;;;;9.73;3.50;;;;;;;13.87;58.85;101274.75;4988304;28;124339;-68
2021/05/26 00:19:19;;;;;;;5.88;3.38;;;;;;;13.87;58.57;101269.41;4988217;28;123251;-69
2021/05/26 00:21:46;;;;;;;7.35;3.78;;;;;;;13.86;58.39;101265.03;4986349;28;114562;-68
2021/05/26 00:24:14;;;;;;;8.93;3.72;;;;;;;13.87;58.28;101253.44;4989151;28;113951;-68
2021/05/26 00:26:43;;;;;;;10.00;4.00;;;;;;;13.88;58.15;101255.16;4988866;28;123961;-68
2021/05/26 00:29:11;;;;;;;7.25;3.80;;;;;;;13.89;58.10;101267.53;4988794;28;123667;-69
2021/05/26 00:31:38;;;;;;;7.22;3.60;;;;;;;13.89;58.15;101268.38;4988454;28;115002;-69
2021/05/26 00:34:06;;;;;;;7.93;3.42;;;;;;;13.91;58.23;101261.16;4987864;28;114781;-68
2021/05/26 00:36:33;;;;;;;6.32;3.60;;;;;;;13.93;58.11;101253.09;4989123;28;124804;-68
2021/05/26 00:39:00;;;;;;;9.52;3.83;;;;;;;13.94;58.07;101254.84;4989598;28;124440;-68
2021/05/26 00:41:28;;;;;;;6.75;3.78;;;;;;;13.95;58.10;101253.88;4983863;28;114467;-68
2021/05/26 00:43:56;;;;;;;8.48;4.10;;;;;;;13.97;58.16;101249.34;4988264;28;113628;-68
2021/05/26 00:46:24;;;;;;;7.28;4.03;;;;;;;14.00;58.20;101246.53;4989030;28;123809;-69
2021/05/26 00:48:52;;;;;;;8.05;4.13;;;;;;;14.01;58.33;101240.25;4989187;28;123034;-69
2021/05/26 00:51:19;;;;;;;7.95;4.63;;;;;;;14.02;58.48;101241.97;4990839;28;114769;-69
2021/05/26 00:53:46;;;;;;;9.27;4.30;;;;;;;14.05;58.38;101241.78;4985136;28;114296;-69
2021/05/26 00:56:13;;;;;;;11.15;4.60;;;;;;;14.06;58.27;101232.88;4988095;28;124476;-68
2021/05/26 00:58:41;;;;;;;7.50;4.60;;;;;;;14.07;58.60;101229.28;5002779;28;123573;-68
2021/05/26 01:01:08;;;;;;;9.98;4.53;;;;;;;14.09;58.68;101226.50;4987733;28;115314;-69
2021/05/26 01:03:36;;;;;;;10.15;4.40;;;;;;;14.10;58.49;101229.09;4989088;28;113228;-67
2021/05/26 01:06:03;;;;;;;9.05;4.57;;;;;;;14.12;58.58;101227.22;4987773;28;124273;-67
2021/05/26 01:08:30;;;;;;;8.68;4.38;;;;;;;14.13;58.46;101223.63;4989449;28;122996;-67
2021/05/26 01:10:58;;;;;;;9.80;4.75;;;;;;;14.14;58.50;101213.81;4988438;28;114894;-67
2021/05/26 01:13:30;;;;;;;11.68;5.22;;;;;;;14.14;58.80;101206.69;4986906;28;114021;-67
2021/05/26 01:15:57;;;;;;;13.75;5.18;;;;;;;14.15;58.66;101205.75;4987354;28;123979;-67
2021/05/26 01:18:31;;;;;;;12.35;4.97;;;;;;;14.16;58.59;101196.78;4989305;28;124693;-67
2021/05/26 01:21:08;;;;;;;9.90;5.13;;;;;;;14.16;58.71;101195.94;4985795;28;114397;-67
2021/05/26 01:23:37;;;;;;;13.65;5.60;;;;;;;14.16;58.73;101191.47;4989094;28;114350;-67
2021/05/26 01:26:06;;;;;;;13.25;5.60;;;;;;;14.18;58.94;101194.06;4988705;28;124364;-67
2021/05/26 01:28:35;;;;;;;10.65;5.13;;;;;;;14.19;58.99;101191.31;5004843;28;123352;-67
2021/05/26 01:31:12;;;;;;;10.15;5.90;;;;;;;14.19;58.83;101185.97;4990465;28;114750;-67
2021/05/26 01:33:40;;;;;;;10.85;6.00;;;;;;;14.20;58.94;101187.72;4988601;28;114460;-67
2021/05/26 01:36:16;;;;;;;12.20;6.45;;;;;;;14.20;58.87;101186.84;4987299;28;126814;-67
2021/05/26 01:38:43;;;;;;;9.07;5.97;;;;;;;14.19;58.93;101183.31;4990786;28;122988;-67
2021/05/26 01:41:12;;;;;;;11.18;5.78;;;;;;;14.18;58.86;101184.28;4993368;28;114525;-68
2021/05/26 01:43:41;;;;;;;11.65;5.63;;;;;;;14.17;58.66;101181.69;4991962;28;113139;-68
2021/05/26 01:46:08;;;;;;;13.77;6.10;;;;;;;14.16;58.82;101180.81;4990661;28;123292;-68
2021/05/26 01:48:35;;;;;;;11.05;5.30;;;;;;;14.15;58.75;101176.44;4991325;28;124006;-68
2021/05/26 01:51:04;;;;;;;12.38;5.70;;;;;;;14.15;58.89;101171.13;4990558;28;114501;-68
2021/05/26 01:53:32;;;;;;;13.98;5.45;;;;;;;14.15;58.75;101173.78;4993266;28;114673;-68
2021/05/26 01:56:00;;;;;;;11.57;5.60;;;;;;;14.13;58.87;101170.34;4990899;28;124250;-68
2021/05/26 01:58:32;;;;;;;13.75;5.35;;;;;;;14.13;58.84;101170.34;4987353;28;123155;-67
2021/05/26 02:01:03;;;;;;;15.30;4.97;;;;;;;14.13;58.82;101170.34;4994803;28;113559;-67
2021/05/26 02:03:30;;;;;;;12.35;5.13;;;;;;;14.12;58.89;101168.59;4987803;28;114130;-67
2021/05/26 02:05:58;;;;;;;11.98;4.93;;;;;;;14.10;58.87;101165.16;4991835;28;123751;-67
2021/05/26 02:08:26;;;;;;;13.57;5.30;;;;;;;14.09;59.00;101166.13;4992101;28;123190;-67
2021/05/26 02:13:40;;;;;;;10.93;4.93;;;;;;;14.05;58.85;101161.88;4989656;28;115161;-67
2021/05/26 02:16:07;;;;;;;16.95;5.22;;;;;;;14.04;58.95;101160.19;4987798;28;123960;-67
2021/05/26 02:18:35;;;;;;;11.18;5.13;;;;;;;14.04;58.92;101154.00;4991253;28;124228;-67
2021/05/26 02:21:02;;;;;;;13.00;5.43;;;;;;;14.04;59.18;101152.19;4993112;28;115137;-67
2021/05/26 02:23:29;;;;;;;11.38;5.40;;;;;;;14.03;58.97;101147.81;4993556;28;114168;-67
2021/05/26 02:25:58;;;;;;;12.30;5.38;;;;;;;14.01;58.94;101149.69;4989851;28;124741;-67
2021/05/26 02:28:26;;;;;;;13.27;5.63;;;;;;;14.00;59.07;101148.00;4989376;28;124061;-70
2021/05/26 02:30:53;;;;;;;13.93;5.57;;;;;;;13.99;59.21;101140.94;4991738;28;113576;-67
2021/05/26 02:33:21;;;;;;;18.17;5.80;;;;;;;13.97;59.13;101142.81;4990715;28;114756;-67
2021/05/26 02:35:49;;;;;;;13.25;5.88;;;;;;;13.97;59.30;101137.50;4990556;28;124128;-67
2021/05/26 02:38:16;;;;;;;14.48;6.38;;;;;;;13.96;59.13;101135.78;4989846;28;124631;-67
2021/05/26 02:40:44;;;;;;;15.38;6.40;;;;;;;13.95;59.32;101131.41;4989965;28;114529;-67
2021/05/26 02:43:21;;;;;;;17.40;5.60;;;;;;;13.93;59.17;101135.94;4990424;28;114197;-67
2021/05/26 02:45:50;;;;;;;23.45;6.32;;;;;;;13.93;59.23;101138.59;5003248;28;123829;-67
2021/05/26 02:48:19;;;;;;;15.07;6.15;;;;;;;13.90;59.32;101125.44;4990287;28;122921;-67
2021/05/26 02:50:47;;;;;;;16.90;6.07;;;;;;;13.91;59.25;101128.03;4987065;28;114579;-67
2021/05/26 02:53:17;;;;;;;15.32;5.50;;;;;;;13.89;59.46;101127.25;5004301;28;113228;-67
2021/05/26 02:55:44;;;;;;;17.27;5.80;;;;;;;13.88;59.31;101122.91;4989176;28;124054;-67
2021/05/26 02:58:30;;;;;;;12.95;4.78;;;;;;;13.86;59.00;101130.06;4989625;28;125041;-67
2021/05/26 03:01:20;;;;;;;14.68;5.25;;;;;;;13.85;58.88;101127.53;4991222;28;115838;-67
2021/05/26 03:04:03;;;;;;;11.27;4.38;;;;;;;13.83;58.99;101125.78;4990785;28;114463;-66
2021/05/26 03:06:39;;;;;;;17.00;5.00;;;;;;;13.80;59.08;101123.28;4990111;28;127507;-66
2021/05/26 03:09:07;;;;;;;15.07;4.93;;;;;;;13.80;59.18;101125.94;4987322;28;124677;-67
2021/05/26 03:11:38;;;;;;;15.07;4.65;;;;;;;13.80;59.23;101131.28;4989247;28;114454;-66
2021/05/26 03:14:25;;;;;;;13.95;4.97;;;;;;;13.81;58.96;101127.69;4979999;28;114747;-66
2021/05/26 03:16:58;;;;;;;12.18;4.40;;;;;;;13.79;59.19;101129.56;4988217;28;123094;-69
2021/05/26 03:19:25;;;;;;;15.98;4.63;;;;;;;13.79;59.03;101124.25;5001708;28;124692;-66
2021/05/26 03:22:05;;;;;;;14.85;4.60;;;;;;;13.77;58.99;101126.13;4990569;28;113495;-66
2021/05/26 03:24:51;;;;;;;14.65;4.15;;;;;;;13.76;59.01;101129.72;4990359;28;114727;-66
2021/05/26 03:27:20;;;;;;;17.65;4.13;;;;;;;13.76;58.99;101123.53;4988699;28;123822;-66
2021/05/26 03:29:48;;;;;;;12.63;4.20;;;;;;;13.75;58.98;101122.69;4990516;28;123551;-67
2021/05/26 03:32:15;;;;;;;16.55;4.55;;;;;;;13.75;58.92;101128.03;4987528;28;115483;-66
2021/05/26 03:34:44;;;;;;;11.32;4.32;;;;;;;13.73;58.90;101124.59;4989264;28;114409;-66
2021/05/26 03:37:15;;;;;;;12.10;4.15;;;;;;;13.72;58.90;101117.53;4987033;28;123713;-66
2021/05/26 03:39:43;;;;;;;14.40;4.18;;;;;;;13.73;58.86;101129.91;4988803;28;123240;-66
2021/05/26 03:42:12;;;;;;;15.70;4.40;;;;;;;13.71;58.90;101125.59;4989933;28;113502;-66
2021/05/26 03:44:39;;;;;;;12.93;3.72;;;;;;;13.70;58.98;101124.75;4988983;28;114413;-67
2021/05/26 03:47:07;;;;;;;11.38;4.63;;;;;;;13.70;58.85;101119.41;4988764;28;123333;-66
2021/05/26 03:49:37;;;;;;;12.07;3.83;;;;;;;13.70;58.80;101116.75;4997438;28;123172;-66
2021/05/26 03:52:08;;;;;;;12.13;3.97;;;;;;;13.69;58.85;101117.69;4983309;28;116445;-66
2021/05/26 03:54:35;;;;;;;14.20;3.78;;;;;;;13.68;58.92;101110.66;4990454;28;115367;-65
2021/05/26 03:57:05;;;;;;;12.63;3.90;;;;;;;13.68;58.92;101110.66;4998880;28;123590;-66
2021/05/26 03:59:32;;;;;;;11.55;3.83;;;;;;;13.68;58.85;101115.97;5001707;28;122904;-65
2021/05/26 04:02:00;;;;;;;15.55;4.22;;;;;;;13.67;58.90;101108.91;4990370;28;113361;-66
2021/05/26 04:04:28;;;;;;;13.27;3.92;;;;;;;13.68;58.98;101110.66;4989001;28;114601;-67
2021/05/26 04:06:59;;;;;;;13.90;4.30;;;;;;;13.69;58.82;101112.34;4973442;28;123232;-65
2021/05/26 04:09:29;;;;;;;15.48;4.10;;;;;;;13.69;58.85;101115.00;4990385;28;123182;-66
2021/05/26 04:11:57;;;;;;;10.73;3.90;;;;;;;13.68;58.85;101108.00;4988843;28;114607;-66
2021/05/26 04:14:51;;;;;;;10.50;3.88;;;;;;;13.69;58.86;101111.50;4988063;28;114992;-67
2021/05/26 04:17:51;;;;;;;13.35;4.00;;;;;;;13.65;58.92;101105.47;4967408;28;124695;-65
2021/05/26 04:20:23;;;;;;;9.50;4.25;;;;;;;13.66;58.64;101101.03;5003254;28;123810;-66
2021/05/26 04:22:52;;;;;;;11.20;4.15;;;;;;;13.65;58.93;101105.47;5000699;28;113365;-66
2021/05/26 04:25:19;;;;;;;12.55;4.15;;;;;;;13.64;58.82;101098.47;5002879;28;113282;-66
2021/05/26 04:27:46;;;;;;;13.00;4.63;;;;;;;13.64;59.04;101093.13;4989361;28;123062;-66
2021/05/26 04:30:15;;;;;;;16.15;5.85;;;;;;;13.65;59.07;101100.16;4988671;28;124064;-66
2021/05/26 04:32:44;;;;;;;13.55;4.63;;;;;;;13.67;58.93;101097.41;4989317;28;114610;-66
2021/05/26 04:35:14;;;;;;;11.75;4.80;;;;;;;13.66;59.04;101101.03;4990775;28;114026;-67
2021/05/26 04:37:42;;;;;;;14.88;4.90;;;;;;;13.63;59.03;101102.03;4989187;28;124075;-67
2021/05/26 04:40:10;;;;;;;11.63;4.55;;;;;;;13.63;59.09;101104.72;4986764;28;123837;-67
2021/05/26 04:42:37;;;;;;;10.82;4.50;;;;;;;13.62;58.93;101095.03;4988833;28;115765;-67
2021/05/26 04:45:06;;;;;;;11.07;4.30;;;;;;;13.62;58.87;101095.03;4990515;28;115265;-67
2021/05/26 04:47:33;;;;;;;13.73;4.90;;;;;;;13.62;59.00;101095.03;4988503;28;124390;-67
2021/05/26 04:50:00;;;;;;;15.18;4.88;;;;;;;13.62;59.04;101092.34;4989568;28;123919;-67
2021/05/26 04:52:28;;;;;;;10.57;4.45;;;;;;;13.63;59.16;101091.41;4990319;28;113812;-67
2021/05/26 04:54:55;;;;;;;12.23;4.38;;;;;;;13.64;58.88;101087.81;4990920;28;113427;-68
2021/05/26 04:57:23;;;;;;;11.55;5.07;;;;;;;13.65;59.04;101078.88;4989652;28;123829;-67
2021/05/26 04:59:50;;;;;;;14.50;4.68;;;;;;;13.66;58.93;101085.94;4989139;28;124231;-67
2021/05/26 05:02:17;;;;;;;8.30;3.80;;;;;;;13.66;58.85;101080.59;4988605;28;114550;-67
2021/05/26 05:04:45;;;;;;;11.32;4.38;;;;;;;13.69;58.74;101085.75;4985515;28;114865;-67
2021/05/26 05:07:12;;;;;;;10.50;4.15;;;;;;;13.66;58.81;101080.59;4988220;28;123313;-68
2021/05/26 05:09:39;;;;;;;12.73;4.35;;;;;;;13.67;58.78;101076.97;4989478;28;122931;-67
2021/05/26 05:12:07;;;;;;;14.13;4.35;;;;;;;13.70;58.96;101075.97;4988418;28;114369;-67
2021/05/26 05:14:34;;;;;;;10.90;3.80;;;;;;;13.72;59.01;101074.09;4989940;28;114438;-68
2021/05/26 05:17:01;;;;;;;11.32;4.20;;;;;;;13.75;58.83;101066.78;4991250;28;124560;-69
2021/05/26 05:19:28;;;;;;;12.20;4.00;;;;;;;13.77;58.59;101067.56;4976458;28;122791;-68
2021/05/26 05:21:55;;;;;;;11.60;3.80;;;;;;;13.80;58.97;101062.06;4993545;28;113183;-68
2021/05/26 05:24:22;;;;;;;12.70;4.15;;;;;;;13.83;58.72;101061.91;4993097;28;112878;-68
2021/05/26 05:26:50;;;;;;;10.27;4.13;;;;;;;13.82;58.67;101065.53;4992767;28;124416;-68
2021/05/26 05:29:18;;;;;;;10.38;3.58;;;;;;;13.82;58.49;101065.53;4992452;28;122927;-68
2021/05/26 05:31:45;;;;;;;10.80;3.80;;;;;;;13.82;58.43;101070.84;4992016;28;114512;-68
2021/05/26 05:34:13;;;;;;;9.57;3.42;;;;;;;13.81;58.53;101071.78;4993419;28;114060;-67
2021/05/26 05:36:40;;;;;;;7.40;3.45;;;;;;;13.80;58.37;101067.38;4992613;28;124396;-68
2021/05/26 05:39:07;;;;;;;8.27;3.72;;;;;;;13.80;58.73;101072.69;4993212;28;124116;-67
2021/05/26 05:41:34;;;;;;;9.15;3.35;;;;;;;13.82;58.54;101070.84;4991402;28;114449;-67
2021/05/26 05:44:02;;;;;;;10.07;3.85;;;;;;;13.85;58.44;101068.94;4992525;28;114210;-67
2021/05/26 05:46:29;;;;;;;11.20;3.50;;;;;;;13.86;58.34;101070.66;4991602;28;123831;-66
2021/05/26 05:48:59;;;;;;;8.93;3.67;;;;;;;13.83;58.26;101067.22;4991962;28;123783;-67
2021/05/26 05:51:26;;;;;;;8.13;3.85;;;;;;;13.85;58.26;101068.94;5002227;28;114258;-68
2021/05/26 05:53:53;;;;;;;11.25;4.00;;;;;;;13.86;58.27;101070.66;4992834;28;112947;-68
2021/05/26 05:56:20;;;;;;;8.40;4.22;;;;;;;13.89;58.08;101070.50;4992365;23;123453;-65
2021/05/26 05:58:47;;;;;;;10.25;4.38;;;;;;;13.89;58.24;101076.66;4989348;28;124200;-65
2021/05/26 06:01:14;;;;;;;6.30;3.75;;;;;;;13.94;58.15;101079.09;4993341;28;114618;-65
2021/05/26 06:03:41;;;;;;;9.40;3.85;;;;;;;13.95;57.95;101075.47;4992793;28;113565;-65
2021/05/26 06:06:09;;;;;;;7.30;3.58;;;;;;;13.97;57.87;101071.78;4988879;28;123798;-64
2021/05/26 06:08:36;;;;;;;7.95;3.38;;;;;;;14.00;57.84;101068.94;4970568;28;124692;-65
2021/05/26 06:11:03;;;;;;;8.40;3.88;;;;;;;14.05;57.84;101065.16;4973342;28;113817;-65
2021/05/26 06:13:30;;;;;;;9.07;3.63;;;;;;;14.10;57.62;101063.97;4971872;28;113814;-64
2021/05/26 06:15:57;;;;;;;7.00;3.50;;;;;;;14.13;57.84;101058.47;4972814;28;123176;-64
2021/05/26 06:18:24;;;;;;;10.55;3.53;;;;;;;14.20;57.88;101054.53;4969705;28;124809;-65
2021/05/26 06:20:51;;;;;;;6.75;3.45;;;;;;;14.31;57.88;101050.38;4971262;28;115411;-65
2021/05/26 06:23:25;;;;;;;8.70;3.53;;;;;;;14.44;57.96;101050.53;4970449;28;115713;-65
2021/05/26 06:25:52;;;;;;;6.60;3.30;;;;;;;14.59;57.90;101055.84;4971610;28;124729;-65
2021/05/26 06:28:19;;;;;;;6.93;3.42;;;;;;;14.77;58.18;101063.72;4972999;28;124698;-65
2021/05/26 06:30:47;;;;;;;7.25;3.30;;;;;;;14.92;57.49;101062.81;4974150;28;115044;-65
2021/05/26 06:33:14;;;;;;;9.32;3.50;;;;;;;15.00;57.21;101059.69;4967811;28;113932;-66
2021/05/26 06:35:41;;;;;;;6.63;3.50;;;;;;;15.08;57.06;101067.22;4969761;28;123960;-66
2021/05/26 06:38:08;;;;;;;6.20;3.05;;;;;;;15.12;56.68;101066.94;4971446;28;122948;-66
2021/05/26 06:40:35;;;;;;;7.47;3.20;;;;;;;15.19;56.70;101059.41;4971773;28;113291;-66
2021/05/26 06:43:03;;;;;;;6.63;3.10;;;;;;;15.28;56.74;101069.53;4970273;28;113888;-66
2021/05/26 06:45:30;;;;;;;7.68;3.20;;;;;;;15.38;56.63;101065.34;4966582;28;124255;-66
2021/05/26 06:47:57;;;;;;;7.35;3.13;;;;;;;15.47;56.33;101068.41;4972431;28;123935;-66
2021/05/26 06:50:24;;;;;;;5.45;3.13;;;;;;;15.57;56.24;101066.88;4971037;28;114150;-66
2021/05/26 06:52:51;;;;;;;6.70;3.30;;;;;;;15.64;55.90;101062.88;4970297;28;113807;-65
2021/05/26 06:55:20;;;;;;;5.97;3.50;;;;;;;15.72;55.93;101049.88;4970202;28;124029;-65
2021/05/26 06:57:47;;;;;;;9.88;4.10;;;;;;;15.80;56.17;101053.91;4971215;28;124265;-66
2021/05/26 07:00:16;;;;;;;7.07;4.32;;;;;;;15.87;55.90;101055.25;4971997;28;114326;-66
2021/05/26 07:02:43;;;;;;;7.63;5.07;;;;;;;15.91;55.15;101056.75;4973082;28;114237;-66
2021/05/26 07:05:11;;;;;;;10.88;4.75;;;;;;;15.93;55.20;101052.16;4968572;28;122816;-66
2021/05/26 07:07:38;;;;;;;6.72;4.60;;;;;;;15.98;55.19;101066.09;4966368;28;125004;-66
2021/05/26 07:10:06;;;;;;;7.63;4.50;;;;;;;16.01;54.90;101057.91;4968859;28;115293;-66
2021/05/26 07:12:33;;;;;;;7.93;4.85;;;;;;;16.01;54.94;101063.25;4971969;28;114714;-66
2021/05/26 07:15:01;;;;;;;7.70;4.75;;;;;;;16.02;55.00;101054.25;4969167;28;125344;-66
2021/05/26 07:17:28;;;;;;;5.38;4.57;;;;;;;16.07;54.51;101056.66;4970696;28;124271;-66
2021/05/26 07:19:55;;;;;;;7.13;4.38;;;;;;;16.06;54.25;101061.09;4970936;28;113269;-66
2021/05/26 07:22:22;;;;;;;6.85;4.30;;;;;;;16.04;54.29;101063.03;4967967;28;114277;-66
2021/05/26 07:24:49;;;;;;;12.20;4.90;;;;;;;16.02;54.14;101054.25;4978015;28;124025;-66
2021/05/26 07:27:17;;;;;;;11.13;4.35;;;;;;;16.00;54.14;101056.16;4971016;28;123697;-66
2021/05/26 07:29:44;;;;;;;10.27;4.72;;;;;;;16.02;54.29;101054.25;4976068;28;114295;-66
2021/05/26 07:32:11;;;;;;;7.15;5.22;;;;;;;16.07;54.43;101052.16;4969805;28;114405;-66
2021/05/26 07:34:38;;;;;;;8.45;4.97;;;;;;;16.15;54.42;101052.50;4970822;28;123426;-66
2021/05/26 07:37:05;;;;;;;6.90;5.10;;;;;;;16.25;54.55;101054.56;4970068;28;123616;-66
2021/05/26 07:39:36;;;;;;;8.77;4.72;;;;;;;16.32;54.29;101047.88;4970768;28;114773;-66
2021/05/26 07:42:04;;;;;;;7.70;4.30;;;;;;;16.37;54.02;101040.41;4970676;28;113853;-66
2021/05/26 07:44:32;;;;;;;8.77;4.15;;;;;;;16.39;53.83;101051.84;4987672;28;123264;-65
2021/05/26 07:47:00;;;;;;;6.85;4.25;;;;;;;16.44;54.09;101039.03;4969539;28;123999;-66
2021/05/26 07:49:27;;;;;;;7.38;4.28;;;;;;;16.53;53.90;101043.75;4968269;28;114504;-65
2021/05/26 07:51:56;;;;;;;8.35;4.30;;;;;;;16.60;54.02;101032.66;4972927;28;114579;-66
2021/05/26 07:54:23;;;;;;;7.55;4.60;;;;;;;16.67;53.67;101033.94;4970075;28;124787;-66
2021/05/26 07:56:51;;;;;;;7.03;3.85;;;;;;;16.71;53.51;101040.81;4972729;28;124295;-66
2021/05/26 07:59:18;;;;;;;5.80;3.78;;;;;;;16.72;53.22;101038.03;4969379;28;115265;-64
2021/05/26 08:01:45;;;;;;;7.47;3.45;;;;;;;16.73;53.20;101033.56;4985930;28;114907;-64
2021/05/26 08:04:12;;;;;;;7.43;3.33;;;;;;;16.77;53.24;101040.41;4974154;28;123904;-64
2021/05/26 08:06:39;;;;;;;5.90;3.20;;;;;;;16.80;52.96;101040.19;4976136;28;124184;-64
2021/05/26 08:09:06;;;;;;;6.82;3.88;;;;;;;16.78;52.77;101042.09;4973119;28;114984;-64
2021/05/26 08:11:33;;;;;;;6.43;3.65;;;;;;;16.79;53.04;101038.47;4973323;28;116648;-64
2021/05/26 08:14:00;;;;;;;9.05;4.00;;;;;;;16.84;53.37;101036.38;4974291;28;124444;-64
2021/05/26 08:16:27;;;;;;;5.05;3.30;;;;;;;16.89;52.69;101039.56;4974205;28;124013;-64
2021/05/26 08:18:54;;;;;;;7.47;3.53;;;;;;;16.90;52.50;101041.31;4972569;28;114200;-64
2021/05/26 08:21:21;;;;;;;6.32;3.60;;;;;;;16.90;52.59;101035.97;4973455;28;114449;-64
2021/05/26 08:23:48;;;;;;;7.18;3.63;;;;;;;16.92;52.29;101039.38;4978992;28;124325;-64
2021/05/26 08:26:21;;;;;;;5.82;3.70;;;;;;;16.95;52.41;101032.09;4972670;28;123834;-64
2021/05/26 08:28:50;;;;;;;6.55;3.88;;;;;;;16.97;52.50;101030.19;4972332;28;114901;-66
2021/05/26 08:31:17;;;;;;;8.30;4.57;;;;;;;17.04;53.25;101028.78;4988548;28;114524;-66
2021/05/26 08:33:44;;;;;;;6.10;4.30;;;;;;;17.14;53.00;101027.22;4973080;28;123952;-64
2021/05/26 08:36:11;;;;;;;7.60;4.38;;;;;;;17.25;52.55;101030.00;4973176;28;124582;-68
2021/05/26 08:38:39;;;;;;;7.82;4.20;;;;;;;17.32;52.43;101025.88;4972410;28;113861;-68
2021/05/26 08:41:10;;;;;;;6.60;5.25;;;;;;;17.38;52.25;101029.09;4973155;28;113985;-68
2021/05/26 08:43:40;;;;;;;8.48;5.30;;;;;;;17.43;51.69;101029.66;4973188;28;124672;-68
2021/05/26 08:46:09;;;;;;;9.13;4.80;;;;;;;17.48;51.79;101025.69;4972686;28;123885;-69
2021/05/26 08:48:37;;;;;;;9.40;6.20;;;;;;;17.54;51.73;101024.38;4972745;28;115298;-68
2021/05/26 08:51:10;;;;;;;9.45;5.65;;;;;;;17.57;51.44;101016.09;4976032;28;115604;-69
2021/05/26 08:53:38;;;;;;;8.48;6.10;;;;;;;17.60;51.41;101015.91;4974137;28;124282;-69
2021/05/26 08:56:05;;;;;;;10.93;6.68;;;;;;;17.63;51.14;101013.00;4973644;28;124238;-68
2021/05/26 08:58:39;;;;;;;9.45;6.10;;;;;;;17.61;51.28;101009.59;4975822;28;114620;-68
2021/05/26 09:01:12;;;;;;;7.55;6.10;;;;;;;17.64;51.15;101009.34;4975240;28;114655;-68
2021/05/26 09:03:40;;;;;;;7.88;6.18;;;;;;;17.64;51.07;101014.72;4976268;28;124813;-69
2021/05/26 09:06:12;;;;;;;11.27;6.90;;;;;;;17.65;51.21;101011.06;4975916;28;124521;-69
2021/05/26 09:08:52;;;;;;;11.80;7.18;;;;;;;17.66;51.28;101002.06;4975854;28;114172;-69
2021/05/26 09:11:32;;;;;;;10.55;7.13;;;;;;;17.71;51.17;101002.59;4973615;28;114421;-69
2021/05/26 09:14:13;;;;;;;9.48;6.85;;;;;;;17.74;50.81;101004.19;4975332;28;123940;-68
2021/05/26 09:16:40;;;;;;;10.57;8.07;;;;;;;17.76;50.57;101001.41;4972348;28;124564;-69
2021/05/26 09:19:11;;;;;;;10.98;8.50;;;;;;;17.73;50.33;101004.31;4974690;28;114478;-69
2021/05/26 09:21:54;;;;;;;12.18;9.02;;;;;;;17.65;50.17;101000.38;4976068;28;114248;-69
2021/05/26 09:24:22;;;;;;;10.52;9.07;;;;;;;17.59;50.45;100990.06;4975563;28;123984;-69
2021/05/26 09:27:04;;;;;;;10.57;9.32;;;;;;;17.56;50.29;100995.66;4975040;28;123929;-69
2021/05/26 09:29:38;;;;;;;13.77;10.05;;;;;;;17.58;50.76;100999.09;4966348;28;114193;-69
2021/05/26 09:32:27;;;;;;;15.40;11.02;;;;;;;17.61;51.34;100998.88;4978297;28;114388;-69
2021/05/26 09:34:56;;;;;;;13.75;9.85;;;;;;;17.75;51.43;100994.34;4975533;28;124601;-68
2021/05/26 09:37:31;;;;;;;14.85;10.50;;;;;;;17.81;51.22;100993.88;4973786;28;124421;-68
2021/05/26 09:40:02;;;;;;;13.98;10.65;;;;;;;17.91;50.89;101000.28;4978639;28;115874;-69
2021/05/26 09:42:37;;;;;;;12.63;10.52;;;;;;;17.98;50.83;100998.88;4978503;28;115389;-69
2021/05/26 09:45:20;;;;;;;14.30;12.05;;;;;;;18.06;51.20;100999.19;4975184;28;124588;-69
2021/05/26 09:47:55;;;;;;;14.52;11.25;;;;;;;18.16;50.81;100982.41;4970270;28;124610;-69
2021/05/26 09:50:30;;;;;;;14.63;11.82;;;;;;;18.19;50.65;100984.84;4974319;28;114674;-69
2021/05/26 09:53:06;;;;;;;13.65;12.20;;;;;;;18.19;50.29;100992.91;4972329;28;114297;-69
2021/05/26 09:55:37;;;;;;;14.75;12.15;;;;;;;18.21;50.54;100990.97;4974788;28;125106;-69
2021/05/26 09:58:07;;;;;;;14.38;12.85;;;;;;;18.30;50.35;100995.63;4974021;28;124788;-69
2021/05/26 10:00:35;;;;;;;17.48;13.23;;;;;;;18.38;50.26;101003.94;4975610;28;114960;-70
2021/05/26 10:03:03;;;;;;;16.00;12.52;;;;;;;18.46;50.49;100990.81;4972234;28;114234;-69
2021/05/26 10:05:31;;;;;;;18.88;12.60;;;;;;;18.61;50.86;100993.28;4971424;28;124655;-69
2021/05/26 10:08:16;;;;;;;14.35;12.45;;;;;;;18.81;50.50;100978.38;4971677;28;124698;-69
2021/05/26 10:11:10;;;;;;;15.15;11.98;;;;;;;18.97;49.83;100986.13;4972935;28;114957;-68
2021/05/26 10:13:45;;;;;;;15.18;11.52;;;;;;;19.04;49.74;100987.31;4963303;28;113516;-68
2021/05/26 10:16:20;;;;;;;11.02;9.93;;;;;;;19.08;48.75;100982.56;4973563;28;124294;-68
2021/05/26 10:18:47;;;;;;;16.08;10.15;;;;;;;19.11;48.98;100985.88;4960678;28;124166;-68
2021/05/26 10:21:19;;;;;;;15.77;10.60;;;;;;;19.19;48.95;100978.06;4980033;28;114265;-69
2021/05/26 10:23:54;;;;;;;13.15;10.90;;;;;;;19.29;48.87;100980.00;4980544;28;114338;-69
2021/05/26 10:27:23;;;;;;;17.10;10.43;;;;;;;19.35;48.62;100976.84;4972485;28;124133;-69
2021/05/26 10:29:43;;;;;;;12.15;10.52;;;;;;;19.39;47.96;100983.69;4965352;28;123985;-68
2021/05/26 10:32:16;;;;;;;13.38;10.35;;;;;;;19.39;47.81;100978.31;4972790;28;115533;-69
2021/05/26 10:34:43;;;;;;;15.02;11.27;;;;;;;19.41;48.14;100981.72;4977266;28;115423;-69
2021/05/26 10:37:23;;;;;;;15.73;12.18;;;;;;;19.45;47.66;100977.81;4973391;28;124074;-68
2021/05/26 10:39:51;;;;;;;14.40;11.60;;;;;;;19.53;47.74;100985.25;4975605;28;124635;-68
2021/05/26 10:42:30;;;;;;;15.93;12.88;;;;;;;19.57;47.97;100982.19;4971741;28;114834;-69
2021/05/26 10:45:09;;;;;;;17.13;13.10;;;;;;;19.64;47.77;100983.38;4971798;28;114505;-70
2021/05/26 10:47:39;;;;;;;15.70;11.68;;;;;;;19.68;47.66;100977.78;4972231;28;124455;-69
2021/05/26 10:50:20;;;;;;;14.50;11.43;;;;;;;19.71;47.51;100977.53;4971779;28;124681;-70
2021/05/26 10:52:56;;;;;;;15.73;11.00;;;;;;;19.74;47.60;100980.00;4972549;28;114371;-69
2021/05/26 10:55:34;;;;;;;11.02;9.82;;;;;;;19.78;47.15;100978.78;4972229;28;114284;-69
2021/05/26 10:58:26;;;;;;;13.20;9.73;;;;;;;19.83;47.23;100977.44;4969994;28;124352;-69
2021/05/26 11:00:58;;;;;;;11.00;9.15;;;;;;;19.88;46.62;100968.97;4970835;28;124664;-69
2021/05/26 11:03:33;;;;;;;13.27;9.93;;;;;;;19.88;46.50;100974.34;4973149;28;113668;-69
2021/05/26 11:06:06;;;;;;;13.77;10.88;;;;;;;19.89;46.76;100978.75;4973165;28;114099;-69
2021/05/26 11:08:41;;;;;;;13.55;10.95;;;;;;;19.95;47.06;100978.25;4958752;28;123981;-69
2021/05/26 11:11:23;;;;;;;13.82;10.82;;;;;;;20.03;46.80;100978.44;4969642;28;123829;-69
2021/05/26 11:14:10;;;;;;;12.05;9.27;;;;;;;20.05;46.22;100980.19;4967683;28;114346;-69
2021/05/26 11:16:40;;;;;;;11.15;7.75;;;;;;;20.05;45.87;100972.09;4971806;28;114291;-69
2021/05/26 11:19:13;;;;;;;10.02;7.95;;;;;;;20.06;45.87;100965.72;4969703;28;124768;-69
2021/05/26 11:21:52;;;;;;;11.48;7.38;;;;;;;20.06;45.61;100971.09;4971790;28;124100;-69
2021/05/26 11:24:19;;;;;;;11.65;7.05;;;;;;;20.07;45.31;100972.81;4979209;28;115467;-69
2021/05/26 11:26:48;;;;;;;10.02;6.97;;;;;;;20.05;44.73;100964.03;4972476;28;115367;-69
2021/05/26 11:29:37;;;;;;;5.75;2.35;;;;;;;19.90;44.30;101001.94;4969456;28;124609;-69